Terminal Aerodrome Forecast
Issued by NWS Topeka, KS

Home | Current Version | Previous Version | Text Only | Print | Product List | Glossary On
Versions: 1 2 3 4 5 6 7 8 9 10 11 12 13 14 15 16 17 18 19 20
000
FTUS43 KTOP 260500
TAFTOP
TAF
KTOP 260539Z 2606/2706 24005KT P6SM VCSH BKN040
      TEMPO 2606/2608 4SM -TSRA BKN030CB
     FM260900 18006KT P6SM BKN025
     FM261500 22013G23KT P6SM SCT050
     FM270000 25007KT P6SM BKN080=

USA.gov is the U.S. government's official web portal to all federal, state and local government web resources and services.